sensor_id;sensor_type;location;lat;lon;timestamp;pressure;altitude;pressure_sealevel;temperature;humidity
8941;BME280;4505;43.406;23.226;2023-01-19T00:00:54;98537.97;;;17.69;55.95
8941;BME280;4505;43.406;23.226;2023-01-19T00:03:21;98540.47;;;17.65;56.90
8941;BME280;4505;43.406;23.226;2023-01-19T00:05:48;98538.94;;;17.73;57.06
8941;BME280;4505;43.406;23.226;2023-01-19T00:08:14;98543.84;;;17.71;56.77
8941;BME280;4505;43.406;23.226;2023-01-19T00:10:41;98553.06;;;17.56;58.17
8941;BME280;4505;43.406;23.226;2023-01-19T00:13:08;98540.88;;;17.50;59.07
8941;BME280;4505;43.406;23.226;2023-01-19T00:15:36;98544.63;;;17.49;58.66
8941;BME280;4505;43.406;23.226;2023-01-19T00:18:03;98547.94;;;17.46;59.27
8941;BME280;4505;43.406;23.226;2023-01-19T00:20:30;98545.75;;;17.48;59.71
8941;BME280;4505;43.406;23.226;2023-01-19T00:22:59;98551.50;;;17.42;59.99
8941;BME280;4505;43.406;23.226;2023-01-19T00:25:26;98542.94;;;17.53;59.52
8941;BME280;4505;43.406;23.226;2023-01-19T00:27:56;98548.78;;;17.55;60.04
8941;BME280;4505;43.406;23.226;2023-01-19T00:30:22;98540.56;;;17.52;59.89
8941;BME280;4505;43.406;23.226;2023-01-19T00:32:50;98545.34;;;17.63;59.92
8941;BME280;4505;43.406;23.226;2023-01-19T00:35:17;98550.16;;;17.75;60.05
8941;BME280;4505;43.406;23.226;2023-01-19T00:37:44;98554.81;;;17.61;61.11
8941;BME280;4505;43.406;23.226;2023-01-19T00:40:11;98558.00;;;17.63;61.08
8941;BME280;4505;43.406;23.226;2023-01-19T00:42:37;98552.50;;;17.46;62.61
8941;BME280;4505;43.406;23.226;2023-01-19T00:45:09;98552.75;;;17.58;60.64
8941;BME280;4505;43.406;23.226;2023-01-19T00:47:36;98541.03;;;17.76;61.84
8941;BME280;4505;43.406;23.226;2023-01-19T00:50:05;98540.13;;;17.58;60.37
8941;BME280;4505;43.406;23.226;2023-01-19T00:52:32;98540.56;;;17.52;60.56
8941;BME280;4505;43.406;23.226;2023-01-19T00:54:59;98545.56;;;17.45;61.00
8941;BME280;4505;43.406;23.226;2023-01-19T00:57:25;98541.72;;;17.59;58.88
8941;BME280;4505;43.406;23.226;2023-01-19T00:59:53;98529.41;;;17.58;61.07
8941;BME280;4505;43.406;23.226;2023-01-19T01:02:20;98535.22;;;17.38;63.56
8941;BME280;4505;43.406;23.226;2023-01-19T01:04:47;98552.59;;;17.41;62.24
8941;BME280;4505;43.406;23.226;2023-01-19T01:07:20;98546.00;;;17.25;65.52
8941;BME280;4505;43.406;23.226;2023-01-19T01:09:47;98538.22;;;17.14;67.55
8941;BME280;4505;43.406;23.226;2023-01-19T01:12:13;98534.38;;;17.29;65.31
8941;BME280;4505;43.406;23.226;2023-01-19T01:14:40;98524.97;;;17.40;63.36
8941;BME280;4505;43.406;23.226;2023-01-19T01:17:07;98521.56;;;17.26;64.73
8941;BME280;4505;43.406;23.226;2023-01-19T01:19:35;98525.75;;;17.41;61.70
8941;BME280;4505;43.406;23.226;2023-01-19T01:22:02;98526.13;;;17.26;63.93
8941;BME280;4505;43.406;23.226;2023-01-19T01:24:30;98512.53;;;17.22;65.76
8941;BME280;4505;43.406;23.226;2023-01-19T01:26:57;98514.91;;;17.24;66.09
8941;BME280;4505;43.406;23.226;2023-01-19T01:29:24;98522.84;;;17.29;65.70
8941;BME280;4505;43.406;23.226;2023-01-19T01:31:50;98520.28;;;17.24;64.34
8941;BME280;4505;43.406;23.226;2023-01-19T01:34:17;98513.81;;;17.25;64.47
8941;BME280;4505;43.406;23.226;2023-01-19T01:36:44;98500.16;;;17.35;64.97
8941;BME280;4505;43.406;23.226;2023-01-19T01:39:10;98509.25;;;17.25;66.37
8941;BME280;4505;43.406;23.226;2023-01-19T01:41:38;98494.13;;;17.29;66.98
8941;BME280;4505;43.406;23.226;2023-01-19T01:46:47;98480.97;;;17.19;69.10
8941;BME280;4505;43.406;23.226;2023-01-19T01:49:14;98480.53;;;17.26;67.60
8941;BME280;4505;43.406;23.226;2023-01-19T01:51:42;98473.63;;;17.33;65.28
8941;BME280;4505;43.406;23.226;2023-01-19T01:54:12;98479.72;;;17.25;66.75
8941;BME280;4505;43.406;23.226;2023-01-19T01:56:44;98472.28;;;17.22;67.71
8941;BME280;4505;43.406;23.226;2023-01-19T01:59:12;98466.56;;;17.37;65.00
8941;BME280;4505;43.406;23.226;2023-01-19T02:01:42;98488.66;;;17.34;65.36
8941;BME280;4505;43.406;23.226;2023-01-19T02:04:26;98492.53;;;17.28;65.75
8941;BME280;4505;43.406;23.226;2023-01-19T02:06:53;98484.47;;;17.28;65.42
8941;BME280;4505;43.406;23.226;2023-01-19T02:09:37;98479.91;;;17.29;65.04
8941;BME280;4505;43.406;23.226;2023-01-19T02:12:23;98485.59;;;17.27;65.16
8941;BME280;4505;43.406;23.226;2023-01-19T02:15:13;98481.66;;;17.33;64.08
8941;BME280;4505;43.406;23.226;2023-01-19T02:17:40;98476.81;;;17.35;63.57
8941;BME280;4505;43.406;23.226;2023-01-19T02:20:07;98477.22;;;17.29;64.08
8941;BME280;4505;43.406;23.226;2023-01-19T02:22:36;98496.69;;;17.34;63.39
8941;BME280;4505;43.406;23.226;2023-01-19T02:25:06;98493.44;;;17.24;64.29
8941;BME280;4505;43.406;23.226;2023-01-19T02:27:33;98499.97;;;17.09;66.10
8941;BME280;4505;43.406;23.226;2023-01-19T02:30:01;98501.38;;;17.06;66.57
8941;BME280;4505;43.406;23.226;2023-01-19T02:32:28;98515.53;;;17.21;64.19
8941;BME280;4505;43.406;23.226;2023-01-19T02:34:55;98509.78;;;17.13;64.62
8941;BME280;4505;43.406;23.226;2023-01-19T02:37:21;98516.69;;;17.28;62.65
8941;BME280;4505;43.406;23.226;2023-01-19T02:39:50;98498.75;;;17.15;63.42
8941;BME280;4505;43.406;23.226;2023-01-19T02:42:20;98516.31;;;17.21;62.74
8941;BME280;4505;43.406;23.226;2023-01-19T02:44:48;98502.03;;;17.12;63.28
8941;BME280;4505;43.406;23.226;2023-01-19T02:47:16;98520.34;;;17.10;62.96
8941;BME280;4505;43.406;23.226;2023-01-19T02:49:42;98512.31;;;17.10;62.96
8941;BME280;4505;43.406;23.226;2023-01-19T02:52:11;98527.69;;;17.04;63.16
8941;BME280;4505;43.406;23.226;2023-01-19T02:54:43;98505.28;;;17.23;61.60
8941;BME280;4505;43.406;23.226;2023-01-19T02:57:30;98512.53;;;17.22;60.45
8941;BME280;4505;43.406;23.226;2023-01-19T03:00:05;98493.16;;;17.25;59.98
8941;BME280;4505;43.406;23.226;2023-01-19T03:02:39;98494.59;;;17.31;59.36
8941;BME280;4505;43.406;23.226;2023-01-19T03:05:19;98513.66;;;17.21;60.13
8941;BME280;4505;43.406;23.226;2023-01-19T03:07:49;98521.72;;;17.30;59.06
8941;BME280;4505;43.406;23.226;2023-01-19T03:10:21;98509.00;;;17.35;58.41
8941;BME280;4505;43.406;23.226;2023-01-19T03:12:53;98497.53;;;17.43;57.38
8941;BME280;4505;43.406;23.226;2023-01-19T03:15:24;98508.16;;;17.48;56.97
8941;BME280;4505;43.406;23.226;2023-01-19T03:17:54;98524.63;;;17.55;56.48
8941;BME280;4505;43.406;23.226;2023-01-19T03:20:25;98497.66;;;17.60;55.48
8941;BME280;4505;43.406;23.226;2023-01-19T03:22:54;98509.84;;;17.44;56.41
8941;BME280;4505;43.406;23.226;2023-01-19T03:25:22;98502.72;;;17.40;56.71
8941;BME280;4505;43.406;23.226;2023-01-19T03:27:50;98493.41;;;17.37;56.74
8941;BME280;4505;43.406;23.226;2023-01-19T03:30:21;98497.28;;;17.31;57.22
8941;BME280;4505;43.406;23.226;2023-01-19T03:32:48;98497.53;;;17.43;56.24
8941;BME280;4505;43.406;23.226;2023-01-19T03:35:17;98505.50;;;17.35;56.94
8941;BME280;4505;43.406;23.226;2023-01-19T03:37:44;98506.13;;;17.32;57.41
8941;BME280;4505;43.406;23.226;2023-01-19T03:40:14;98484.34;;;17.33;56.71
8941;BME280;4505;43.406;23.226;2023-01-19T03:42:40;98513.84;;;17.47;55.79
8941;BME280;4505;43.406;23.226;2023-01-19T03:45:08;98507.63;;;17.60;55.06
8941;BME280;4505;43.406;23.226;2023-01-19T03:47:36;98511.34;;;17.50;55.27
8941;BME280;4505;43.406;23.226;2023-01-19T03:50:03;98507.06;;;17.49;55.39
8941;BME280;4505;43.406;23.226;2023-01-19T03:52:32;98507.88;;;17.36;56.03
8941;BME280;4505;43.406;23.226;2023-01-19T03:54:59;98512.78;;;17.34;56.16
8941;BME280;4505;43.406;23.226;2023-01-19T03:57:26;98505.63;;;17.30;56.40
8941;BME280;4505;43.406;23.226;2023-01-19T03:59:53;98497.16;;;17.36;55.98
8941;BME280;4505;43.406;23.226;2023-01-19T04:02:20;98494.34;;;17.41;55.50
8941;BME280;4505;43.406;23.226;2023-01-19T04:04:48;98508.25;;;17.43;55.17
8941;BME280;4505;43.406;23.226;2023-01-19T04:07:14;98503.41;;;17.45;54.73
8941;BME280;4505;43.406;23.226;2023-01-19T04:09:41;98516.41;;;17.52;53.94
8941;BME280;4505;43.406;23.226;2023-01-19T04:12:08;98509.50;;;17.59;53.42
8941;BME280;4505;43.406;23.226;2023-01-19T04:14:34;98520.47;;;17.49;53.68
8941;BME280;4505;43.406;23.226;2023-01-19T04:17:01;98515.81;;;17.41;54.33
8941;BME280;4505;43.406;23.226;2023-01-19T04:19:27;98534.72;;;17.36;54.38
8941;BME280;4505;43.406;23.226;2023-01-19T04:21:56;98521.91;;;17.33;54.05
8941;BME280;4505;43.406;23.226;2023-01-19T04:24:22;98530.19;;;17.23;54.42
8941;BME280;4505;43.406;23.226;2023-01-19T04:26:49;98539.47;;;17.17;54.94
8941;BME280;4505;43.406;23.226;2023-01-19T04:29:16;98535.53;;;17.14;54.95
8941;BME280;4505;43.406;23.226;2023-01-19T04:31:43;98531.00;;;17.24;54.30
8941;BME280;4505;43.406;23.226;2023-01-19T04:34:10;98542.47;;;17.38;53.16
8941;BME280;4505;43.406;23.226;2023-01-19T04:36:36;98522.53;;;17.30;53.22
8941;BME280;4505;43.406;23.226;2023-01-19T04:39:04;98536.44;;;17.32;53.33
8941;BME280;4505;43.406;23.226;2023-01-19T04:41:33;98535.75;;;17.27;53.95
8941;BME280;4505;43.406;23.226;2023-01-19T04:43:59;98526.78;;;17.31;53.83
8941;BME280;4505;43.406;23.226;2023-01-19T04:46:26;98507.44;;;17.34;53.27
8941;BME280;4505;43.406;23.226;2023-01-19T04:48:53;98518.81;;;17.40;52.68
8941;BME280;4505;43.406;23.226;2023-01-19T04:51:19;98526.94;;;17.26;53.72
8941;BME280;4505;43.406;23.226;2023-01-19T04:53:46;98520.34;;;17.10;54.67
8941;BME280;4505;43.406;23.226;2023-01-19T04:56:14;98515.72;;;17.02;55.46
8941;BME280;4505;43.406;23.226;2023-01-19T04:58:40;98517.28;;;17.03;55.35
8941;BME280;4505;43.406;23.226;2023-01-19T05:01:07;98519.84;;;17.08;55.20
8941;BME280;4505;43.406;23.226;2023-01-19T05:03:34;98519.66;;;17.27;53.70
8941;BME280;4505;43.406;23.226;2023-01-19T05:06:00;98531.63;;;17.21;54.14
8941;BME280;4505;43.406;23.226;2023-01-19T05:08:27;98528.31;;;17.24;53.69
8941;BME280;4505;43.406;23.226;2023-01-19T05:10:54;98519.47;;;17.23;53.52
8941;BME280;4505;43.406;23.226;2023-01-19T05:13:23;98522.00;;;17.20;53.94
8941;BME280;4505;43.406;23.226;2023-01-19T05:15:50;98512.41;;;17.27;53.33
8941;BME280;4505;43.406;23.226;2023-01-19T05:18:16;98498.38;;;17.30;52.80
8941;BME280;4505;43.406;23.226;2023-01-19T05:20:43;98498.16;;;17.40;52.21
8941;BME280;4505;43.406;23.226;2023-01-19T05:23:10;98506.81;;;17.37;52.15
8941;BME280;4505;43.406;23.226;2023-01-19T05:25:36;98510.53;;;17.28;52.69
8941;BME280;4505;43.406;23.226;2023-01-19T05:28:03;98520.34;;;17.32;52.27
8941;BME280;4505;43.406;23.226;2023-01-19T05:30:31;98502.50;;;17.28;52.61
8941;BME280;4505;43.406;23.226;2023-01-19T05:32:58;98503.25;;;17.28;52.54
8941;BME280;4505;43.406;23.226;2023-01-19T05:35:24;98510.75;;;17.40;51.67
8941;BME280;4505;43.406;23.226;2023-01-19T05:37:51;98506.31;;;17.35;51.96
8941;BME280;4505;43.406;23.226;2023-01-19T05:40:18;98517.59;;;17.46;51.67
8941;BME280;4505;43.406;23.226;2023-01-19T05:42:44;98517.06;;;17.35;52.13
8941;BME280;4505;43.406;23.226;2023-01-19T05:45:11;98518.09;;;17.26;52.48
8941;BME280;4505;43.406;23.226;2023-01-19T05:47:43;98512.66;;;17.39;51.79
8941;BME280;4505;43.406;23.226;2023-01-19T05:50:09;98510.13;;;17.34;52.22
8941;BME280;4505;43.406;23.226;2023-01-19T05:52:36;98506.00;;;17.37;52.08
8941;BME280;4505;43.406;23.226;2023-01-19T05:55:03;98517.66;;;17.32;52.24
8941;BME280;4505;43.406;23.226;2023-01-19T05:57:29;98527.56;;;17.45;51.48
8941;BME280;4505;43.406;23.226;2023-01-19T05:59:56;98518.91;;;17.48;51.60
8941;BME280;4505;43.406;23.226;2023-01-19T06:02:22;98521.91;;;17.47;51.83
8941;BME280;4505;43.406;23.226;2023-01-19T06:04:54;98514.97;;;17.32;52.95
8941;BME280;4505;43.406;23.226;2023-01-19T06:07:21;98502.19;;;17.51;51.56
8941;BME280;4505;43.406;23.226;2023-01-19T06:09:47;98508.66;;;17.50;51.52
8941;BME280;4505;43.406;23.226;2023-01-19T06:12:14;98487.72;;;17.61;50.94
8941;BME280;4505;43.406;23.226;2023-01-19T06:14:41;98493.88;;;17.61;51.22
8941;BME280;4505;43.406;23.226;2023-01-19T06:17:07;98503.88;;;17.47;52.07
8941;BME280;4505;43.406;23.226;2023-01-19T06:19:34;98511.50;;;17.54;51.54
8941;BME280;4505;43.406;23.226;2023-01-19T06:22:02;98519.13;;;17.60;51.35
8941;BME280;4505;43.406;23.226;2023-01-19T06:24:29;98511.19;;;17.55;51.63
8941;BME280;4505;43.406;23.226;2023-01-19T06:26:55;98498.25;;;17.57;51.45
8941;BME280;4505;43.406;23.226;2023-01-19T06:29:22;98506.56;;;17.69;50.99
8941;BME280;4505;43.406;23.226;2023-01-19T06:31:49;98494.84;;;17.65;51.35
8941;BME280;4505;43.406;23.226;2023-01-19T06:34:16;98496.03;;;17.81;50.63
8941;BME280;4505;43.406;23.226;2023-01-19T06:36:44;98509.72;;;17.71;51.28
8941;BME280;4505;43.406;23.226;2023-01-19T06:39:12;98500.50;;;17.64;51.75
8941;BME280;4505;43.406;23.226;2023-01-19T06:41:38;98488.38;;;17.66;51.41
8941;BME280;4505;43.406;23.226;2023-01-19T06:44:05;98498.84;;;17.76;51.07
8941;BME280;4505;43.406;23.226;2023-01-19T06:46:32;98488.94;;;17.85;50.36
8941;BME280;4505;43.406;23.226;2023-01-19T06:48:59;98478.84;;;17.91;50.09
8941;BME280;4505;43.406;23.226;2023-01-19T06:51:26;98513.94;;;17.94;50.27
8941;BME280;4505;43.406;23.226;2023-01-19T06:53:53;98491.81;;;17.97;49.84
8941;BME280;4505;43.406;23.226;2023-01-19T06:56:21;98498.19;;;18.01;49.67
8941;BME280;4505;43.406;23.226;2023-01-19T06:58:51;98497.88;;;18.03;49.65
8941;BME280;4505;43.406;23.226;2023-01-19T07:01:20;98487.91;;;18.03;49.81
8941;BME280;4505;43.406;23.226;2023-01-19T07:03:50;98490.59;;;18.03;49.87
8941;BME280;4505;43.406;23.226;2023-01-19T07:06:17;98472.75;;;18.07;49.44
8941;BME280;4505;43.406;23.226;2023-01-19T07:08:43;98480.38;;;18.14;48.83
8941;BME280;4505;43.406;23.226;2023-01-19T07:11:10;98499.66;;;18.16;49.21
8941;BME280;4505;43.406;23.226;2023-01-19T07:13:39;98465.94;;;18.10;49.50
8941;BME280;4505;43.406;23.226;2023-01-19T07:16:07;98487.78;;;18.17;48.91
8941;BME280;4505;43.406;23.226;2023-01-19T07:18:35;98491.59;;;18.24;48.73
8941;BME280;4505;43.406;23.226;2023-01-19T07:21:01;98456.22;;;18.22;49.06
8941;BME280;4505;43.406;23.226;2023-01-19T07:23:28;98471.56;;;18.30;48.35
8941;BME280;4505;43.406;23.226;2023-01-19T07:25:55;98515.19;;;18.36;48.13
8941;BME280;4505;43.406;23.226;2023-01-19T07:28:22;98508.69;;;18.37;48.55
8941;BME280;4505;43.406;23.226;2023-01-19T07:30:51;98470.81;;;18.38;48.53
8941;BME280;4505;43.406;23.226;2023-01-19T07:33:17;98468.72;;;18.35;48.63
8941;BME280;4505;43.406;23.226;2023-01-19T07:35:46;98438.41;;;18.52;47.31
8941;BME280;4505;43.406;23.226;2023-01-19T07:38:13;98462.44;;;18.48;47.45
8941;BME280;4505;43.406;23.226;2023-01-19T07:40:42;98466.59;;;18.55;47.34
8941;BME280;4505;43.406;23.226;2023-01-19T07:43:11;98475.28;;;18.60;46.69
8941;BME280;4505;43.406;23.226;2023-01-19T07:45:38;98501.38;;;18.68;46.67
8941;BME280;4505;43.406;23.226;2023-01-19T07:48:06;98477.50;;;18.84;46.30
8941;BME280;4505;43.406;23.226;2023-01-19T07:50:33;98493.66;;;18.75;46.06
8941;BME280;4505;43.406;23.226;2023-01-19T07:53:03;98499.97;;;18.79;46.11
8941;BME280;4505;43.406;23.226;2023-01-19T07:55:29;98510.56;;;18.76;46.53
8941;BME280;4505;43.406;23.226;2023-01-19T07:57:56;98512.31;;;18.89;45.94
8941;BME280;4505;43.406;23.226;2023-01-19T08:00:23;98519.44;;;18.93;46.00
8941;BME280;4505;43.406;23.226;2023-01-19T08:02:50;98495.56;;;19.09;44.60
8941;BME280;4505;43.406;23.226;2023-01-19T08:05:20;98522.16;;;19.19;44.56
8941;BME280;4505;43.406;23.226;2023-01-19T08:07:47;98531.00;;;19.19;44.82
8941;BME280;4505;43.406;23.226;2023-01-19T08:10:14;98506.16;;;19.14;44.92
8941;BME280;4505;43.406;23.226;2023-01-19T08:12:41;98489.66;;;19.24;43.70
8941;BME280;4505;43.406;23.226;2023-01-19T08:15:08;98528.66;;;19.35;43.48
8941;BME280;4505;43.406;23.226;2023-01-19T08:17:35;98515.97;;;19.44;42.68
8941;BME280;4505;43.406;23.226;2023-01-19T08:20:02;98502.81;;;19.51;43.08
8941;BME280;4505;43.406;23.226;2023-01-19T08:22:31;98485.22;;;19.45;42.46
8941;BME280;4505;43.406;23.226;2023-01-19T08:24:57;98498.84;;;19.48;42.19
8941;BME280;4505;43.406;23.226;2023-01-19T08:27:24;98511.81;;;19.55;42.56
8941;BME280;4505;43.406;23.226;2023-01-19T08:29:50;98524.66;;;19.58;42.32
8941;BME280;4505;43.406;23.226;2023-01-19T08:32:18;98508.50;;;19.58;42.10
8941;BME280;4505;43.406;23.226;2023-01-19T08:34:45;98538.25;;;19.70;41.33
8941;BME280;4505;43.406;23.226;2023-01-19T08:37:12;98548.06;;;19.74;41.53
8941;BME280;4505;43.406;23.226;2023-01-19T08:39:40;98547.09;;;19.87;41.18
8941;BME280;4505;43.406;23.226;2023-01-19T08:42:06;98572.56;;;19.99;41.08
8941;BME280;4505;43.406;23.226;2023-01-19T08:44:35;98569.06;;;20.07;41.06
8941;BME280;4505;43.406;23.226;2023-01-19T08:47:02;98556.72;;;19.97;40.64
8941;BME280;4505;43.406;23.226;2023-01-19T08:49:29;98576.19;;;20.03;40.97
8941;BME280;4505;43.406;23.226;2023-01-19T08:51:55;98569.06;;;20.07;40.49
8941;BME280;4505;43.406;23.226;2023-01-19T08:54:22;98561.91;;;20.19;40.24
8941;BME280;4505;43.406;23.226;2023-01-19T08:56:50;98565.63;;;19.89;40.28
8941;BME280;4505;43.406;23.226;2023-01-19T08:59:17;98554.28;;;20.13;39.82
8941;BME280;4505;43.406;23.226;2023-01-19T09:01:43;98555.44;;;20.03;40.20
8941;BME280;4505;43.406;23.226;2023-01-19T09:04:10;98529.72;;;20.14;39.82
8941;BME280;4505;43.406;23.226;2023-01-19T09:06:42;98550.66;;;20.17;39.57
8941;BME280;4505;43.406;23.226;2023-01-19T09:09:09;98545.25;;;20.17;39.37
8941;BME280;4505;43.406;23.226;2023-01-19T09:11:36;98552.63;;;20.37;38.79
8941;BME280;4505;43.406;23.226;2023-01-19T09:14:04;98540.69;;;20.47;39.03
8941;BME280;4505;43.406;23.226;2023-01-19T09:16:33;98547.66;;;20.48;39.01
8941;BME280;4505;43.406;23.226;2023-01-19T09:19:00;98560.16;;;20.52;39.04
8941;BME280;4505;43.406;23.226;2023-01-19T09:21:27;98553.66;;;20.53;38.80
8941;BME280;4505;43.406;23.226;2023-01-19T09:23:54;98550.84;;;20.41;38.97
8941;BME280;4505;43.406;23.226;2023-01-19T09:26:21;98548.41;;;20.57;38.27
8941;BME280;4505;43.406;23.226;2023-01-19T09:28:48;98569.69;;;20.50;38.61
8941;BME280;4505;43.406;23.226;2023-01-19T09:31:16;98533.59;;;20.42;38.86
8941;BME280;4505;43.406;23.226;2023-01-19T09:33:43;98558.25;;;20.53;38.39
8941;BME280;4505;43.406;23.226;2023-01-19T09:36:20;98536.31;;;20.63;38.74
8941;BME280;4505;43.406;23.226;2023-01-19T09:38:47;98520.19;;;20.54;38.60
8941;BME280;4505;43.406;23.226;2023-01-19T09:41:16;98487.16;;;20.57;38.29
8941;BME280;4505;43.406;23.226;2023-01-19T09:43:45;98513.91;;;20.91;38.30
8941;BME280;4505;43.406;23.226;2023-01-19T09:46:21;98508.31;;;20.76;38.06
8941;BME280;4505;43.406;23.226;2023-01-19T09:48:57;98534.63;;;20.79;38.22
8941;BME280;4505;43.406;23.226;2023-01-19T09:51:31;98522.78;;;20.92;37.41
8941;BME280;4505;43.406;23.226;2023-01-19T09:54:01;98532.31;;;20.89;37.84
8941;BME280;4505;43.406;23.226;2023-01-19T09:56:28;98522.47;;;21.14;37.37
8941;BME280;4505;43.406;23.226;2023-01-19T09:58:56;98537.88;;;21.13;37.21
8941;BME280;4505;43.406;23.226;2023-01-19T10:01:35;98514.78;;;21.04;37.69
8941;BME280;4505;43.406;23.226;2023-01-19T10:04:14;98521.00;;;20.96;37.51
8941;BME280;4505;43.406;23.226;2023-01-19T10:06:44;98533.09;;;20.98;37.25
8941;BME280;4505;43.406;23.226;2023-01-19T10:09:13;98518.25;;;21.25;37.37
8941;BME280;4505;43.406;23.226;2023-01-19T10:11:45;98511.94;;;21.00;37.25
8941;BME280;4505;43.406;23.226;2023-01-19T10:14:16;98504.50;;;20.97;37.03
8941;BME280;4505;43.406;23.226;2023-01-19T10:16:48;98506.41;;;21.17;36.64
8941;BME280;4505;43.406;23.226;2023-01-19T10:19:19;98483.34;;;21.20;36.69
8941;BME280;4505;43.406;23.226;2023-01-19T10:21:48;98519.81;;;21.26;37.03
8941;BME280;4505;43.406;23.226;2023-01-19T10:24:16;98517.88;;;21.14;37.12
8941;BME280;4505;43.406;23.226;2023-01-19T10:26:44;98532.34;;;21.31;37.53
8941;BME280;4505;43.406;23.226;2023-01-19T10:29:16;98516.38;;;21.38;36.75
8941;BME280;4505;43.406;23.226;2023-01-19T10:31:46;98508.94;;;21.35;36.60
8941;BME280;4505;43.406;23.226;2023-01-19T10:34:13;98526.03;;;21.26;36.60
8941;BME280;4505;43.406;23.226;2023-01-19T10:36:42;98505.75;;;21.20;37.08
8941;BME280;4505;43.406;23.226;2023-01-19T10:39:10;98512.31;;;21.32;36.11
8941;BME280;4505;43.406;23.226;2023-01-19T10:41:39;98524.19;;;21.18;36.81
8941;BME280;4505;43.406;23.226;2023-01-19T10:44:07;98519.44;;;21.36;36.35
8941;BME280;4505;43.406;23.226;2023-01-19T10:46:36;98516.34;;;21.58;35.59
8941;BME280;4505;43.406;23.226;2023-01-19T10:49:05;98528.00;;;21.71;35.83
8941;BME280;4505;43.406;23.226;2023-01-19T10:51:32;98517.44;;;21.78;35.60
8941;BME280;4505;43.406;23.226;2023-01-19T10:53:59;98531.88;;;21.82;35.87
8941;BME280;4505;43.406;23.226;2023-01-19T10:56:28;98540.59;;;21.99;35.62
8941;BME280;4505;43.406;23.226;2023-01-19T10:58:57;98553.84;;;21.92;35.46
8941;BME280;4505;43.406;23.226;2023-01-19T11:01:25;98539.00;;;21.66;36.06
8941;BME280;4505;43.406;23.226;2023-01-19T11:03:55;98546.66;;;22.08;35.54
8941;BME280;4505;43.406;23.226;2023-01-19T11:06:31;98535.31;;;22.03;35.61
8941;BME280;4505;43.406;23.226;2023-01-19T11:09:08;98533.44;;;21.83;35.98
8941;BME280;4505;43.406;23.226;2023-01-19T11:11:40;98553.22;;;22.07;35.93
8941;BME280;4505;43.406;23.226;2023-01-19T11:14:08;98551.56;;;22.51;35.28
8941;BME280;4505;43.406;23.226;2023-01-19T11:16:36;98560.09;;;22.29;35.27
8941;BME280;4505;43.406;23.226;2023-01-19T11:19:04;98560.72;;;22.02;35.21
8941;BME280;4505;43.406;23.226;2023-01-19T11:21:41;98570.88;;;21.93;36.21
8941;BME280;4505;43.406;23.226;2023-01-19T11:24:08;98559.41;;;22.20;36.13
8941;BME280;4505;43.406;23.226;2023-01-19T11:26:39;98553.72;;;21.89;36.59
8941;BME280;4505;43.406;23.226;2023-01-19T11:29:12;98557.28;;;22.13;35.95
8941;BME280;4505;43.406;23.226;2023-01-19T11:31:41;98575.56;;;22.28;35.62
8941;BME280;4505;43.406;23.226;2023-01-19T11:34:21;98553.16;;;21.83;35.41
8941;BME280;4505;43.406;23.226;2023-01-19T11:36:55;98570.81;;;21.27;36.60
8941;BME280;4505;43.406;23.226;2023-01-19T11:39:23;98551.25;;;21.31;37.05
8941;BME280;4505;43.406;23.226;2023-01-19T11:41:52;98538.09;;;21.62;36.44
8941;BME280;4505;43.406;23.226;2023-01-19T11:44:21;98531.47;;;21.71;37.03
8941;BME280;4505;43.406;23.226;2023-01-19T11:46:49;98527.47;;;21.45;36.83
8941;BME280;4505;43.406;23.226;2023-01-19T11:49:19;98545.19;;;21.34;36.73
8941;BME280;4505;43.406;23.226;2023-01-19T11:51:50;98519.31;;;21.12;37.07
8941;BME280;4505;43.406;23.226;2023-01-19T11:54:19;98510.84;;;21.01;37.86
8941;BME280;4505;43.406;23.226;2023-01-19T11:56:48;98501.63;;;20.94;37.78
8941;BME280;4505;43.406;23.226;2023-01-19T11:59:16;98514.03;;;20.95;37.39
8941;BME280;4505;43.406;23.226;2023-01-19T12:01:44;98530.22;;;20.95;37.85
8941;BME280;4505;43.406;23.226;2023-01-19T12:04:13;98531.78;;;21.04;38.05
8941;BME280;4505;43.406;23.226;2023-01-19T12:06:43;98528.50;;;21.19;37.48
8941;BME280;4505;43.406;23.226;2023-01-19T12:09:13;98531.63;;;21.01;37.76
8941;BME280;4505;43.406;23.226;2023-01-19T12:11:45;98534.34;;;20.92;38.08
8941;BME280;4505;43.406;23.226;2023-01-19T12:14:14;98515.94;;;20.94;37.42
8941;BME280;4505;43.406;23.226;2023-01-19T12:16:42;98521.34;;;21.15;37.12
8941;BME280;4505;43.406;23.226;2023-01-19T12:19:10;98512.81;;;21.13;36.74
8941;BME280;4505;43.406;23.226;2023-01-19T12:21:40;98516.75;;;21.15;36.79
8941;BME280;4505;43.406;23.226;2023-01-19T12:24:09;98534.66;;;20.99;37.36
8941;BME280;4505;43.406;23.226;2023-01-19T12:26:39;98529.19;;;20.87;37.25
8941;BME280;4505;43.406;23.226;2023-01-19T12:29:11;98527.94;;;21.05;37.49
8941;BME280;4505;43.406;23.226;2023-01-19T12:31:38;98518.38;;;20.87;37.71
8941;BME280;4505;43.406;23.226;2023-01-19T12:36:56;98512.69;;;21.09;36.97
8941;BME280;4505;43.406;23.226;2023-01-19T12:39:25;98502.09;;;21.04;37.17
8941;BME280;4505;43.406;23.226;2023-01-19T12:42:02;98520.13;;;21.12;36.73
8941;BME280;4505;43.406;23.226;2023-01-19T12:44:32;98537.22;;;21.37;36.49
8941;BME280;4505;43.406;23.226;2023-01-19T12:46:59;98529.22;;;21.41;36.44
8941;BME280;4505;43.406;23.226;2023-01-19T12:49:33;98529.75;;;21.34;36.57
8941;BME280;4505;43.406;23.226;2023-01-19T12:52:18;98515.94;;;21.36;36.63
8941;BME280;4505;43.406;23.226;2023-01-19T12:54:57;98532.56;;;21.25;36.48
8941;BME280;4505;43.406;23.226;2023-01-19T12:57:26;98535.97;;;21.35;36.70
8941;BME280;4505;43.406;23.226;2023-01-19T12:59:57;98567.44;;;21.10;36.91
8941;BME280;4505;43.406;23.226;2023-01-19T13:05:20;98569.88;;;21.03;37.04
8941;BME280;4505;43.406;23.226;2023-01-19T13:13:34;98578.59;;;20.79;37.29
8941;BME280;4505;43.406;23.226;2023-01-19T13:18:57;98564.34;;;20.99;37.14
8941;BME280;4505;43.406;23.226;2023-01-19T13:21:27;98589.94;;;20.93;37.17
8941;BME280;4505;43.406;23.226;2023-01-19T13:23:55;98589.94;;;20.93;37.07
8941;BME280;4505;43.406;23.226;2023-01-19T13:26:22;98601.09;;;21.12;36.95
8941;BME280;4505;43.406;23.226;2023-01-19T13:28:51;98593.03;;;21.04;37.54
8941;BME280;4505;43.406;23.226;2023-01-19T13:31:20;98608.91;;;21.05;37.00
8941;BME280;4505;43.406;23.226;2023-01-19T13:33:48;98605.97;;;20.61;37.11